Time;durP1;ratioP1;P1;durP2;ratioP2;P2;SDS_P1;SDS_P2;PMS_P1;PMS_P2;Temp;Humidity;BMP_temperature;BMP_pressure;BME280_temperature;BME280_humidity;BME280_pressure;Samples;Min_cycle;Max_cycle;Signal;HPM_P1;HPM_P2
2023/05/14 00:01:25;;;;;;;14.43;11.30;;;12.60;99.90;;;;;;4983602;28;20116;-84
2023/05/14 00:03:51;;;;;;;15.68;10.70;;;12.60;99.90;;;;;;5006089;28;20473;-83
2023/05/14 00:06:16;;;;;;;17.35;11.52;;;12.70;99.90;;;;;;5026665;28;20053;-83
2023/05/14 00:08:42;;;;;;;15.75;11.35;;;12.60;99.90;;;;;;5018445;28;20508;-84
2023/05/14 00:11:08;;;;;;;18.67;11.25;;;12.60;99.90;;;;;;5008848;28;20473;-83
2023/05/14 00:13:34;;;;;;;14.05;10.73;;;12.60;99.90;;;;;;5015066;28;20045;-84
2023/05/14 00:16:01;;;;;;;16.50;10.73;;;12.70;99.90;;;;;;4998404;28;20069;-83
2023/05/14 00:18:26;;;;;;;18.67;11.07;;;12.70;99.90;;;;;;5015328;28;20116;-83
2023/05/14 00:20:53;;;;;;;17.35;11.15;;;12.60;99.90;;;;;;5018283;28;20140;-82
2023/05/14 00:23:22;;;;;;;15.68;11.63;;;12.60;99.90;;;;;;5007253;28;20071;-83
2023/05/14 00:25:48;;;;;;;13.77;10.77;;;12.60;99.90;;;;;;5016982;28;20033;-83
2023/05/14 00:28:14;;;;;;;16.88;10.90;;;12.60;99.90;;;;;;4989842;28;20098;-83
2023/05/14 00:30:40;;;;;;;17.52;11.13;;;12.50;99.90;;;;;;5029451;28;20037;-83
2023/05/14 00:33:06;;;;;;;17.02;11.48;;;12.50;99.90;;;;;;4991351;28;20508;-83
2023/05/14 00:35:34;;;;;;;18.48;10.70;;;12.50;99.90;;;;;;4993783;28;20044;-84
2023/05/14 00:38:01;;;;;;;13.75;10.93;;;12.40;99.90;;;;;;5034076;28;20171;-83
2023/05/14 00:40:27;;;;;;;13.95;10.82;;;12.40;99.90;;;;;;5000670;28;20086;-83
2023/05/14 00:42:53;;;;;;;16.08;10.93;;;12.30;99.90;;;;;;4997286;28;20119;-83
2023/05/14 00:45:19;;;;;;;14.15;11.10;;;12.30;99.90;;;;;;4998562;28;20477;-83
2023/05/14 00:47:46;;;;;;;23.50;11.43;;;12.30;99.90;;;;;;5012501;28;20033;-82
2023/05/14 00:50:14;;;;;;;19.00;11.95;;;12.20;99.90;;;;;;5017993;28;20099;-84
2023/05/14 00:52:40;;;;;;;17.35;11.02;;;12.20;99.90;;;;;;4998378;28;20045;-83
2023/05/14 00:55:07;;;;;;;14.50;11.05;;;12.20;99.90;;;;;;5016986;28;20045;-83
2023/05/14 00:57:33;;;;;;;16.95;11.60;;;12.10;99.90;;;;;;5017619;28;20095;-83
2023/05/14 01:00:00;;;;;;;16.85;11.60;;;12.10;99.90;;;;;;5017677;28;21526;-83
2023/05/14 01:02:26;;;;;;;18.23;12.73;;;12.10;99.90;;;;;;4995917;28;20038;-82
2023/05/14 01:04:52;;;;;;;17.88;11.52;;;12.00;99.90;;;;;;5013974;28;20041;-83
2023/05/14 01:07:38;;;;;;;17.83;11.68;;;12.00;99.90;;;;;;5032518;28;20563;-84
2023/05/14 01:10:20;;;;;;;15.63;11.77;;;12.00;99.90;;;;;;5008589;28;20044;-83
2023/05/14 01:12:51;;;;;;;22.13;12.77;;;12.00;99.90;;;;;;5013898;28;20553;-83
2023/05/14 01:15:27;;;;;;;15.45;11.70;;;11.90;99.90;;;;;;5010098;28;20099;-83
2023/05/14 01:17:54;;;;;;;;;;;11.90;99.90;;;;;;5004382;28;20041;-84
2023/05/14 01:20:20;;;;;;;19.77;11.70;;;11.90;99.90;;;;;;4990146;28;19917;-83
2023/05/14 01:22:46;;;;;;;19.17;12.45;;;11.90;99.90;;;;;;5017010;28;20056;-83
2023/05/14 01:25:12;;;;;;;20.35;13.27;;;11.90;99.90;;;;;;4977102;28;20046;-83
2023/05/14 01:27:59;;;;;;;18.13;13.23;;;11.80;99.90;;;;;;5019122;28;20037;-83
2023/05/14 01:31:00;;;;;;;16.58;12.25;;;11.80;99.90;;;;;;5020446;28;20040;-83
2023/05/14 01:33:29;;;;;;;18.52;12.02;;;11.80;99.90;;;;;;4997573;28;20041;-82
2023/05/14 01:35:57;;;;;;;21.10;12.43;;;11.70;99.90;;;;;;5034604;28;20072;-83
2023/05/14 01:38:24;;;;;;;20.15;12.82;;;11.70;99.90;;;;;;5010479;28;20056;-84
2023/05/14 01:40:50;;;;;;;20.63;12.00;;;11.70;99.90;;;;;;4987232;28;20049;-83
2023/05/14 01:43:17;;;;;;;16.45;12.50;;;11.60;99.90;;;;;;5019591;28;20040;-83
2023/05/14 01:45:43;;;;;;;17.15;12.15;;;11.60;99.90;;;;;;5020555;28;20033;-83
2023/05/14 01:48:09;;;;;;;18.27;12.55;;;11.60;99.90;;;;;;5036180;28;20515;-83
2023/05/14 01:50:35;;;;;;;20.20;12.13;;;11.50;99.90;;;;;;5020748;28;20069;-84
2023/05/14 01:53:00;;;;;;;18.75;12.63;;;11.40;99.90;;;;;;5020728;28;20083;-84
2023/05/14 01:55:26;;;;;;;18.83;12.50;;;11.30;99.90;;;;;;5020044;28;20037;-83
2023/05/14 01:57:52;;;;;;;24.98;12.25;;;11.30;99.90;;;;;;5002229;28;20048;-82
2023/05/14 02:00:19;;;;;;;19.45;13.15;;;11.30;99.90;;;;;;5018480;28;20476;-83
2023/05/14 02:02:45;;;;;;;18.73;12.93;;;11.30;99.90;;;;;;5019538;28;20043;-83
2023/05/14 02:05:11;;;;;;;17.88;12.25;;;11.30;99.90;;;;;;4987328;28;20041;-83
2023/05/14 02:07:37;;;;;;;17.25;11.85;;;11.30;99.90;;;;;;5000116;28;20348;-84
2023/05/14 02:10:03;;;;;;;25.27;12.43;;;11.30;99.90;;;;;;4999241;28;20068;-83
2023/05/14 02:12:29;;;;;;;21.42;12.57;;;11.30;99.90;;;;;;5002323;28;20040;-83
2023/05/14 02:14:55;;;;;;;25.17;13.40;;;11.30;99.90;;;;;;5019937;28;20037;-84
2023/05/14 02:17:20;;;;;;;25.20;12.50;;;11.20;99.90;;;;;;4986065;28;20388;-83
2023/05/14 02:19:46;;;;;;;19.13;12.75;;;11.20;99.90;;;;;;4998657;28;20401;-83
2023/05/14 02:22:12;;;;;;;20.92;12.82;;;11.10;99.90;;;;;;4994737;28;20056;-83
2023/05/14 02:24:38;;;;;;;19.38;12.02;;;11.20;99.90;;;;;;4983505;28;20060;-83
2023/05/14 02:27:05;;;;;;;15.70;11.70;;;11.20;99.90;;;;;;4983205;28;20033;-83
2023/05/14 02:29:30;;;;;;;16.70;12.13;;;11.20;99.90;;;;;;5002600;28;20190;-83
2023/05/14 02:31:56;;;;;;;17.98;12.15;;;11.20;99.90;;;;;;5004366;28;20569;-82
2023/05/14 02:34:22;;;;;;;18.27;12.50;;;11.20;99.90;;;;;;5019093;28;20493;-83
2023/05/14 02:36:48;;;;;;;14.25;11.65;;;11.20;99.90;;;;;;4991669;28;20124;-82
2023/05/14 02:39:13;;;;;;;16.88;11.82;;;11.20;99.90;;;;;;4974314;28;20038;-83
2023/05/14 02:41:39;;;;;;;16.02;11.73;;;11.20;99.90;;;;;;4998009;28;20049;-83
2023/05/14 02:44:05;;;;;;;15.25;10.90;;;11.20;99.90;;;;;;5010238;28;20044;-84
2023/05/14 02:46:31;;;;;;;18.17;11.82;;;11.20;99.90;;;;;;5019608;28;20060;-83
2023/05/14 02:48:57;;;;;;;16.70;11.80;;;11.20;99.90;;;;;;4973588;28;20045;-83
2023/05/14 02:51:23;;;;;;;18.73;12.38;;;11.20;99.90;;;;;;5013691;28;20037;-84
2023/05/14 02:53:49;;;;;;;18.42;12.38;;;11.20;99.90;;;;;;5000956;28;20036;-83
2023/05/14 02:56:15;;;;;;;17.60;12.02;;;11.10;99.90;;;;;;4999118;28;20136;-83
2023/05/14 02:58:41;;;;;;;20.90;12.00;;;11.00;99.90;;;;;;5003227;28;20037;-82
2023/05/14 03:01:07;;;;;;;20.48;12.57;;;10.90;99.90;;;;;;4988887;28;20082;-83
2023/05/14 03:03:33;;;;;;;19.73;12.10;;;10.90;99.90;;;;;;5033445;28;20049;-83
2023/05/14 03:05:59;;;;;;;15.20;10.85;;;11.00;99.90;;;;;;5008269;28;20037;-84
2023/05/14 03:08:25;;;;;;;20.88;11.70;;;10.90;99.90;;;;;;5005719;28;20029;-82
2023/05/14 03:10:50;;;;;;;19.88;13.30;;;10.90;99.90;;;;;;4983189;28;20048;-83
2023/05/14 03:13:18;;;;;;;17.45;12.70;;;10.70;99.90;;;;;;4984626;28;20079;-83
2023/05/14 03:15:45;;;;;;;17.23;12.20;;;10.70;99.90;;;;;;4993118;28;20045;-83
2023/05/14 03:18:12;;;;;;;18.75;11.88;;;10.60;99.90;;;;;;4998132;28;20106;-83
2023/05/14 03:20:38;;;;;;;19.48;11.25;;;10.60;99.90;;;;;;5005551;28;20068;-83
2023/05/14 03:23:04;;;;;;;17.98;12.30;;;10.60;99.90;;;;;;4982931;28;20517;-83
2023/05/14 03:25:29;;;;;;;19.77;11.63;;;10.50;99.90;;;;;;5013998;28;20532;-84
2023/05/14 03:27:55;;;;;;;19.55;12.00;;;10.50;99.90;;;;;;4998262;28;20048;-83
2023/05/14 03:30:21;;;;;;;17.65;11.63;;;10.50;99.90;;;;;;5001235;28;20030;-83
2023/05/14 03:32:47;;;;;;;15.40;10.82;;;10.50;99.90;;;;;;5014530;28;20037;-84
2023/05/14 03:35:12;;;;;;;17.17;11.23;;;10.50;99.90;;;;;;4997204;28;20069;-83
2023/05/14 03:37:38;;;;;;;16.85;11.40;;;10.50;99.90;;;;;;4998876;28;20153;-83
2023/05/14 03:40:05;;;;;;;17.63;11.48;;;10.50;99.90;;;;;;4994961;28;20486;-83
2023/05/14 03:42:30;;;;;;;16.33;11.00;;;10.60;99.90;;;;;;4996404;28;20038;-83
2023/05/14 03:44:56;;;;;;;15.23;11.18;;;10.60;99.90;;;;;;5010445;28;20041;-83
2023/05/14 03:47:22;;;;;;;17.77;11.43;;;10.60;99.90;;;;;;4947280;28;20074;-83
2023/05/14 03:49:47;;;;;;;16.67;11.32;;;10.60;99.90;;;;;;4995467;28;20045;-83
2023/05/14 03:52:13;;;;;;;16.33;10.95;;;10.60;99.90;;;;;;4983326;28;20045;-83
2023/05/14 03:54:40;;;;;;;16.73;10.57;;;10.60;99.90;;;;;;4983923;28;20116;-83
2023/05/14 03:57:06;;;;;;;20.00;11.52;;;10.60;99.90;;;;;;4998811;28;20168;-83
2023/05/14 03:59:31;;;;;;;17.73;11.02;;;10.60;99.90;;;;;;4994743;28;20317;-83
2023/05/14 04:01:57;;;;;;;16.77;11.10;;;10.80;99.90;;;;;;5011375;28;20037;-82
2023/05/14 04:04:23;;;;;;;15.65;11.10;;;10.60;99.90;;;;;;4994432;28;20041;-83
2023/05/14 04:06:48;;;;;;;17.98;11.38;;;10.60;99.90;;;;;;4994412;28;20033;-83
2023/05/14 04:09:14;;;;;;;15.57;10.98;;;10.60;99.90;;;;;;4990178;28;20506;-83
2023/05/14 04:11:40;;;;;;;18.13;11.75;;;10.60;99.90;;;;;;4985619;28;20037;-84
2023/05/14 04:14:05;;;;;;;15.93;11.02;;;10.60;99.90;;;;;;5012370;28;20041;-83
2023/05/14 04:16:31;;;;;;;16.85;10.50;;;10.60;99.90;;;;;;5009738;28;20460;-84
2023/05/14 04:18:57;;;;;;;15.80;10.23;;;10.60;99.90;;;;;;4987234;28;20080;-83
2023/05/14 04:21:22;;;;;;;15.30;10.82;;;10.60;99.90;;;;;;4998488;28;20474;-84
2023/05/14 04:23:49;;;;;;;18.20;10.68;;;10.60;99.90;;;;;;4981632;28;20104;-84
2023/05/14 04:26:15;;;;;;;14.70;10.38;;;10.60;99.90;;;;;;4997664;28;20077;-83
2023/05/14 04:28:40;;;;;;;18.88;11.07;;;10.60;99.90;;;;;;5031113;28;20072;-83
2023/05/14 04:31:06;;;;;;;18.40;9.82;;;10.60;99.90;;;;;;4989788;28;20593;-84
2023/05/14 04:33:32;;;;;;;13.38;10.25;;;10.60;99.90;;;;;;4976329;28;20041;-84
2023/05/14 04:35:57;;;;;;;15.20;10.18;;;10.60;99.90;;;;;;5011628;28;20034;-84
2023/05/14 04:38:23;;;;;;;21.77;11.02;;;10.70;99.90;;;;;;4987554;28;20033;-83
2023/05/14 04:40:49;;;;;;;17.45;10.95;;;10.70;99.90;;;;;;4981712;28;20044;-84
2023/05/14 04:43:16;;;;;;;19.75;10.65;;;10.70;99.90;;;;;;4966390;28;20038;-83
2023/05/14 04:45:42;;;;;;;19.05;11.30;;;10.60;99.90;;;;;;4982263;28;20041;-84
2023/05/14 04:48:07;;;;;;;16.30;10.68;;;10.60;99.90;;;;;;4976550;28;20379;-84
2023/05/14 04:50:34;;;;;;;15.15;11.27;;;10.60;99.90;;;;;;4999781;28;20033;-84
2023/05/14 04:53:00;;;;;;;21.35;11.55;;;10.60;99.90;;;;;;4977453;28;20510;-83
2023/05/14 04:55:26;;;;;;;20.15;11.82;;;10.60;99.90;;;;;;4986213;28;20053;-83
2023/05/14 04:57:51;;;;;;;21.10;12.40;;;10.70;99.90;;;;;;4985611;28;20414;-83
2023/05/14 05:00:18;;;;;;;17.98;10.93;;;10.60;99.90;;;;;;4984910;28;20126;-83
2023/05/14 05:02:43;;;;;;;17.00;11.70;;;10.60;99.90;;;;;;4984302;28;20128;-83
2023/05/14 05:05:09;;;;;;;17.60;11.60;;;10.70;99.90;;;;;;4984115;28;20125;-83
2023/05/14 05:07:35;;;;;;;19.42;11.55;;;10.70;99.90;;;;;;4983521;28;20033;-83
2023/05/14 05:10:01;;;;;;;19.45;11.65;;;10.80;99.90;;;;;;4976946;28;20033;-82
2023/05/14 05:12:28;;;;;;;19.92;12.02;;;10.80;99.90;;;;;;4978752;28;20037;-83
2023/05/14 05:14:56;;;;;;;22.73;12.80;;;10.90;99.90;;;;;;4977298;28;20038;-83
2023/05/14 05:17:22;;;;;;;17.90;11.05;;;10.90;99.90;;;;;;4984468;28;20029;-83
2023/05/14 05:19:48;;;;;;;24.50;12.23;;;10.90;99.90;;;;;;4984668;28;20049;-83
2023/05/14 05:22:14;;;;;;;17.05;11.75;;;10.90;99.90;;;;;;4989955;28;20049;-83
2023/05/14 05:24:41;;;;;;;22.65;13.70;;;10.90;99.90;;;;;;5003297;28;20069;-83
2023/05/14 05:27:07;;;;;;;16.92;11.65;;;10.90;99.90;;;;;;5009201;28;20041;-84
2023/05/14 05:29:33;;;;;;;23.08;13.60;;;10.90;99.90;;;;;;4988428;28;20049;-84
2023/05/14 05:31:59;;;;;;;29.42;15.43;;;11.00;99.90;;;;;;4986094;28;20044;-84
2023/05/14 05:34:25;;;;;;;47.70;14.18;;;11.00;99.90;;;;;;4988548;28;20037;-86
2023/05/14 05:36:50;;;;;;;26.83;16.33;;;11.00;99.90;;;;;;5007367;28;20596;-84
2023/05/14 05:39:16;;;;;;;26.15;14.93;;;10.90;99.90;;;;;;4980596;28;20053;-84
2023/05/14 05:41:43;;;;;;;29.23;15.45;;;11.00;99.90;;;;;;4978613;28;20509;-84
2023/05/14 05:44:08;;;;;;;26.65;14.75;;;11.00;99.90;;;;;;4997171;28;20531;-84
2023/05/14 05:46:34;;;;;;;30.05;16.17;;;11.00;99.90;;;;;;5024614;28;20037;-84
2023/05/14 05:49:00;;;;;;;23.63;15.52;;;11.00;99.90;;;;;;4998799;28;20055;-83
2023/05/14 05:51:26;;;;;;;26.33;15.70;;;11.00;99.90;;;;;;5037327;28;20047;-83
2023/05/14 05:53:52;;;;;;;31.58;18.15;;;11.00;99.90;;;;;;4984487;28;20378;-84
2023/05/14 05:56:17;;;;;;;27.77;17.38;;;11.00;99.90;;;;;;5010415;28;20045;-83
2023/05/14 05:58:43;;;;;;;33.70;16.42;;;12.40;99.90;;;;;;5016720;28;20037;-83
2023/05/14 06:01:09;;;;;;;30.88;17.08;;;11.10;99.90;;;;;;5001707;28;20044;-83
2023/05/14 06:03:34;;;;;;;27.08;17.10;;;11.20;99.90;;;;;;5015552;28;20076;-84
2023/05/14 06:06:00;;;;;;;33.40;16.77;;;11.20;99.90;;;;;;4988046;28;20472;-84
2023/05/14 06:08:26;;;;;;;29.10;17.35;;;11.30;99.90;;;;;;5019962;28;20033;-83
2023/05/14 06:10:51;;;;;;;39.10;18.20;;;11.30;99.90;;;;;;4990867;28;20037;-83
2023/05/14 06:13:17;;;;;;;31.55;18.05;;;11.40;99.90;;;;;;4997120;28;20480;-84
2023/05/14 06:15:43;;;;;;;31.42;17.27;;;11.40;99.90;;;;;;5003124;28;20073;-83
2023/05/14 06:18:08;;;;;;;29.38;17.92;;;11.50;99.90;;;;;;5017497;28;20048;-84
2023/05/14 06:20:34;;;;;;;29.02;17.88;;;11.60;99.90;;;;;;5011124;28;20117;-83
2023/05/14 06:23:00;;;;;;;27.13;17.65;;;11.60;99.90;;;;;;5013642;28;20045;-83
2023/05/14 06:25:26;;;;;;;28.48;16.77;;;11.70;99.90;;;;;;4991421;28;20044;-84
2023/05/14 06:27:51;;;;;;;31.65;17.45;;;11.70;99.90;;;;;;4986924;28;20540;-85
2023/05/14 06:30:17;;;;;;;24.60;15.73;;;11.80;99.90;;;;;;5036903;28;20048;-82
2023/05/14 06:32:43;;;;;;;31.17;16.85;;;11.80;99.90;;;;;;5020383;28;20473;-82
2023/05/14 06:35:09;;;;;;;27.23;17.17;;;11.80;99.90;;;;;;5001647;28;20041;-83
2023/05/14 06:37:34;;;;;;;31.55;16.63;;;11.90;99.90;;;;;;5001211;28;20044;-83
2023/05/14 06:40:00;;;;;;;26.75;15.85;;;12.00;99.90;;;;;;4986208;28;20102;-83
2023/05/14 06:42:26;;;;;;;25.92;15.10;;;12.10;99.90;;;;;;5000058;28;20551;-81
2023/05/14 06:44:52;;;;;;;18.65;12.23;;;12.20;99.90;;;;;;4986905;28;20049;-84
2023/05/14 06:47:18;;;;;;;25.50;14.75;;;12.20;99.90;;;;;;5002691;28;20048;-84
2023/05/14 06:49:44;;;;;;;26.98;14.98;;;12.30;99.90;;;;;;5018035;28;20044;-83
2023/05/14 06:52:09;;;;;;;27.45;15.45;;;12.30;99.90;;;;;;5014310;28;20043;-84
2023/05/14 06:54:35;;;;;;;26.83;15.40;;;12.40;99.90;;;;;;4978039;28;20116;-83
2023/05/14 06:57:01;;;;;;;22.23;14.40;;;12.50;99.90;;;;;;4982469;28;20045;-84
2023/05/14 06:59:26;;;;;;;24.08;14.27;;;12.60;99.90;;;;;;5008883;28;20041;-83
2023/05/14 07:01:52;;;;;;;29.20;14.35;;;12.70;99.90;;;;;;4977746;28;20507;-83
2023/05/14 07:04:18;;;;;;;24.27;13.65;;;12.80;99.90;;;;;;5035116;28;20041;-83
2023/05/14 07:06:45;;;;;;;22.10;12.93;;;12.90;99.90;;;;;;5030903;28;20049;-82
2023/05/14 07:09:10;;;;;;;24.75;13.55;;;13.10;99.90;;;;;;5004046;28;20095;-82
2023/05/14 07:11:36;;;;;;;21.77;12.13;;;13.30;99.90;;;;;;5000905;28;20493;-83
2023/05/14 07:14:02;;;;;;;22.83;13.02;;;13.40;99.90;;;;;;5017043;28;20037;-84
2023/05/14 07:16:28;;;;;;;22.50;12.43;;;13.60;99.90;;;;;;5003102;28;20362;-82
2023/05/14 07:18:53;;;;;;;21.15;12.40;;;13.70;99.90;;;;;;5034884;28;20075;-84
2023/05/14 07:21:19;;;;;;;20.88;11.63;;;13.90;99.90;;;;;;4989683;28;20112;-83
2023/05/14 07:23:45;;;;;;;17.42;9.68;;;14.00;99.90;;;;;;4998954;28;20501;-82
2023/05/14 07:26:10;;;;;;;21.40;11.60;;;14.10;99.90;;;;;;4993441;28;20044;-82
2023/05/14 07:28:36;;;;;;;19.38;10.43;;;14.30;99.90;;;;;;4995973;28;20116;-82
2023/05/14 07:31:07;;;;;;;15.85;10.40;;;14.40;99.90;;;;;;5011155;28;20038;-82
2023/05/14 07:33:34;;;;;;;19.08;11.27;;;14.60;99.90;;;;;;5015471;28;20493;-81
2023/05/14 07:36:00;;;;;;;21.77;10.50;;;14.70;99.90;;;;;;5008879;28;20060;-83
2023/05/14 07:38:26;;;;;;;22.20;11.02;;;14.90;99.90;;;;;;5002559;28;20054;-81
2023/05/14 07:40:51;;;;;;;22.52;10.85;;;14.90;99.90;;;;;;4991324;28;20041;-84
2023/05/14 07:43:17;;;;;;;23.25;10.40;;;15.00;99.90;;;;;;5009689;28;20397;-82
2023/05/14 07:45:43;;;;;;;17.00;10.48;;;15.10;99.90;;;;;;5011631;28;20091;-83
2023/05/14 07:48:09;;;;;;;19.95;10.32;;;15.20;99.90;;;;;;4995129;28;20049;-83
2023/05/14 07:50:35;;;;;;;19.08;10.48;;;15.30;99.90;;;;;;5009146;28;20045;-83
2023/05/14 07:53:01;;;;;;;22.27;9.23;;;15.40;99.90;;;;;;5007692;28;20037;-83
2023/05/14 07:55:27;;;;;;;17.73;9.95;;;15.50;99.90;;;;;;5003183;28;20098;-82
2023/05/14 07:57:52;;;;;;;18.42;9.40;;;15.70;99.90;;;;;;4997141;28;20469;-83
2023/05/14 08:00:18;;;;;;;22.38;9.70;;;15.80;99.90;;;;;;5014352;28;21477;-82
2023/05/14 08:02:44;;;;;;;14.15;9.10;;;15.80;99.90;;;;;;5031876;28;20037;-82
2023/05/14 08:05:10;;;;;;;13.77;9.02;;;15.90;99.90;;;;;;5023904;28;20080;-83
2023/05/14 08:07:35;;;;;;;17.70;9.57;;;15.90;99.90;;;;;;4986241;28;20092;-82
2023/05/14 08:10:01;;;;;;;16.15;9.40;;;15.90;99.90;;;;;;5012257;28;20029;-82
2023/05/14 08:12:28;;;;;;;16.48;9.48;;;15.90;99.90;;;;;;5008844;28;20512;-82
2023/05/14 08:14:54;;;;;;;20.35;9.48;;;15.90;99.90;;;;;;4997170;28;20046;-83
2023/05/14 08:17:19;;;;;;;15.38;9.65;;;15.90;99.90;;;;;;4979722;28;20053;-82
2023/05/14 08:19:45;;;;;;;17.85;9.25;;;15.90;99.90;;;;;;5006379;28;20038;-83
2023/05/14 08:22:11;;;;;;;18.40;9.20;;;15.90;99.90;;;;;;5005184;28;20050;-82
2023/05/14 08:24:37;;;;;;;20.70;9.82;;;15.90;99.90;;;;;;5013916;28;20041;-82
2023/05/14 08:27:03;;;;;;;19.17;9.38;;;16.10;99.90;;;;;;5028888;28;20048;-83
2023/05/14 08:29:29;;;;;;;17.05;9.02;;;16.20;99.90;;;;;;5001664;28;20033;-82
2023/05/14 08:31:55;;;;;;;20.20;9.80;;;16.40;99.90;;;;;;5018242;28;20037;-82
2023/05/14 08:34:21;;;;;;;16.58;8.90;;;16.50;99.90;;;;;;4994890;28;20029;-82
2023/05/14 08:36:47;;;;;;;14.27;8.82;;;16.70;99.90;;;;;;4961933;28;20504;-83
2023/05/14 08:39:12;;;;;;;15.07;9.68;;;17.00;99.90;;;;;;4986359;28;20084;-83
2023/05/14 08:41:39;;;;;;;18.13;9.00;;;17.20;99.90;;;;;;5003091;28;20045;-81
2023/05/14 08:44:17;;;;;;;16.95;8.90;;;17.30;99.90;;;;;;5011345;28;20040;-82
2023/05/14 08:46:44;;;;;;;17.20;8.77;;;17.40;99.90;;;;;;4997906;28;20049;-83
2023/05/14 08:49:33;;;;;;;18.58;8.55;;;17.60;99.90;;;;;;5006589;28;20040;-82
2023/05/14 08:51:59;;;;;;;14.88;8.55;;;17.70;99.90;;;;;;5016738;28;20053;-83
2023/05/14 08:54:25;;;;;;;14.25;8.57;;;17.70;99.90;;;;;;5018182;28;20038;-82
2023/05/14 08:56:52;;;;;;;18.30;8.80;;;17.80;99.90;;;;;;5023567;28;20524;-82
2023/05/14 08:59:18;;;;;;;19.20;8.57;;;17.90;99.90;;;;;;4991515;28;20106;-82
2023/05/14 09:01:47;;;;;;;16.38;7.57;;;18.00;99.90;;;;;;5007051;28;20044;-83
2023/05/14 09:04:17;;;;;;;13.85;7.97;;;18.10;99.90;;;;;;4996379;28;20567;-83
2023/05/14 09:06:44;;;;;;;14.75;7.53;;;18.10;99.90;;;;;;5017797;28;20119;-83
2023/05/14 09:09:10;;;;;;;15.93;7.30;;;18.00;99.90;;;;;;5017290;28;20504;-82
2023/05/14 09:11:45;;;;;;;16.60;7.57;;;18.10;99.90;;;;;;4996829;28;20429;-83
2023/05/14 09:14:11;;;;;;;12.77;7.40;;;18.20;99.90;;;;;;4998438;28;20496;-83
2023/05/14 09:16:38;;;;;;;11.45;7.53;;;18.30;99.90;;;;;;4989804;28;20079;-83
2023/05/14 09:19:05;;;;;;;14.60;7.32;;;18.50;99.90;;;;;;5013050;28;20053;-83
2023/05/14 09:21:32;;;;;;;13.63;7.25;;;18.70;99.90;;;;;;5018950;28;20108;-83
2023/05/14 09:23:58;;;;;;;13.80;7.03;;;18.80;99.90;;;;;;5020688;28;20431;-83
2023/05/14 09:26:25;;;;;;;11.85;6.72;;;18.90;99.90;;;;;;5005540;28;20052;-83
2023/05/14 09:28:56;;;;;;;13.82;7.13;;;19.00;99.90;;;;;;5035932;28;20033;-83
2023/05/14 09:31:22;;;;;;;16.73;7.47;;;19.10;99.90;;;;;;5036990;28;20496;-82
2023/05/14 09:33:51;;;;;;;12.88;6.53;;;19.20;99.90;;;;;;5003855;28;20044;-82
2023/05/14 09:36:18;;;;;;;14.75;7.03;;;19.20;99.90;;;;;;5018383;28;20147;-81
2023/05/14 09:38:44;;;;;;;14.48;7.75;;;19.30;99.90;;;;;;5023162;28;20401;-81
2023/05/14 09:41:10;;;;;;;16.15;6.57;;;19.20;99.90;;;;;;5023383;28;20482;-81
2023/05/14 09:43:36;;;;;;;16.77;6.90;;;19.20;99.90;;;;;;5007928;28;20088;-81
2023/05/14 09:46:01;;;;;;;14.45;6.70;;;19.20;99.90;;;;;;5033997;28;20060;-81
2023/05/14 09:48:28;;;;;;;14.88;6.70;;;19.20;99.90;;;;;;5034832;28;20041;-81
2023/05/14 09:50:54;;;;;;;18.33;6.63;;;19.20;99.90;;;;;;5036019;28;20496;-82
2023/05/14 09:53:20;;;;;;;10.32;5.80;;;19.20;99.90;;;;;;5004179;28;20045;-81
2023/05/14 09:55:46;;;;;;;11.27;6.60;;;19.20;99.90;;;;;;5035342;28;20063;-82
2023/05/14 09:58:14;;;;;;;10.73;5.80;;;19.20;99.90;;;;;;5007444;28;20497;-83
2023/05/14 10:00:45;;;;;;;12.20;6.20;;;19.20;99.90;;;;;;4993263;28;20041;-83
2023/05/14 10:03:13;;;;;;;13.15;6.10;;;19.30;99.90;;;;;;5003193;28;20179;-84
2023/05/14 10:05:40;;;;;;;12.02;5.68;;;19.30;99.90;;;;;;5000862;28;20141;-82
2023/05/14 10:08:13;;;;;;;15.90;5.97;;;19.20;99.90;;;;;;5019748;28;20032;-84
2023/05/14 10:10:39;;;;;;;13.75;6.05;;;19.20;99.90;;;;;;5021398;28;20040;-84
2023/05/14 10:13:19;;;;;;;11.98;5.97;;;19.20;99.90;;;;;;5020707;28;20037;-84
2023/05/14 10:15:50;;;;;;;10.30;6.20;;;19.20;99.90;;;;;;5036629;28;20412;-84
2023/05/14 10:18:19;;;;;;;12.48;5.70;;;19.30;99.90;;;;;;5019986;28;20045;-84
2023/05/14 10:20:56;;;;;;;16.17;6.53;;;19.30;99.90;;;;;;5004003;28;20045;-83
2023/05/14 10:23:22;;;;;;;16.23;6.53;;;19.40;99.90;;;;;;5020074;28;20053;-83
2023/05/14 10:25:48;;;;;;;11.20;5.35;;;19.40;99.90;;;;;;5004141;28;20130;-82
2023/05/14 10:28:14;;;;;;;10.10;5.32;;;19.40;99.90;;;;;;5003178;28;20041;-83
2023/05/14 10:30:45;;;;;;;9.25;5.00;;;19.50;99.90;;;;;;5003447;28;20144;-83
2023/05/14 10:33:14;;;;;;;11.10;5.28;;;19.60;99.90;;;;;;5019959;28;20087;-82
2023/05/14 10:36:00;;;;;;;12.40;5.18;;;19.70;99.90;;;;;;5004087;28;20083;-82
2023/05/14 10:38:33;;;;;;;10.30;4.65;;;19.80;99.90;;;;;;5019771;28;20048;-82
2023/05/14 10:41:15;;;;;;;10.25;4.60;;;19.90;99.90;;;;;;5015860;28;20052;-83
2023/05/14 10:43:41;;;;;;;8.45;4.50;;;19.90;99.90;;;;;;5019688;28;20086;-83
2023/05/14 10:46:09;;;;;;;6.10;4.10;;;20.00;99.90;;;;;;4998559;28;20045;-84
2023/05/14 10:48:39;;;;;;;11.55;4.93;;;20.20;99.90;;;;;;5033824;28;20029;-84
2023/05/14 10:51:08;;;;;;;9.25;4.90;;;20.30;99.90;;;;;;5018125;28;20029;-83
2023/05/14 10:53:36;;;;;;;8.02;5.13;;;20.40;99.90;;;;;;5016061;28;20032;-85
2023/05/14 10:56:04;;;;;;;11.93;4.93;;;20.50;99.90;;;;;;5034952;28;20044;-86
2023/05/14 10:58:33;;;;;;;11.43;4.82;;;20.60;99.90;;;;;;5036430;28;20044;-84
2023/05/14 11:01:01;;;;;;;11.52;5.07;;;20.70;99.90;;;;;;5017737;28;20083;-84
2023/05/14 11:03:30;;;;;;;9.63;5.18;;;20.70;99.90;;;;;;5031006;28;20045;-83
2023/05/14 11:05:57;;;;;;;10.15;4.72;;;20.80;99.90;;;;;;5018590;28;20036;-85
2023/05/14 11:08:26;;;;;;;10.02;5.15;;;20.80;99.90;;;;;;4974302;28;20072;-85
2023/05/14 11:10:54;;;;;;;11.27;4.93;;;20.70;99.90;;;;;;5016072;28;20050;-85
2023/05/14 11:13:20;;;;;;;11.55;4.85;;;20.80;99.90;;;;;;4999759;28;20037;-83
2023/05/14 11:15:47;;;;;;;9.32;4.88;;;20.80;99.90;;;;;;4967976;28;20052;-83
2023/05/14 11:18:24;;;;;;;7.57;4.18;;;20.90;99.90;;;;;;4990495;28;20095;-83
2023/05/14 11:20:51;;;;;;;10.73;4.53;;;20.90;99.90;;;;;;5014041;28;20041;-83
2023/05/14 11:23:17;;;;;;;9.35;5.32;;;21.00;99.90;;;;;;4976810;28;20134;-82
2023/05/14 11:25:42;;;;;;;13.30;4.40;;;21.00;99.90;;;;;;4994108;28;20486;-82
2023/05/14 11:28:08;;;;;;;10.95;5.03;;;21.10;99.90;;;;;;4991081;28;20117;-83
2023/05/14 11:30:34;;;;;;;7.20;4.22;;;21.20;99.90;;;;;;4993410;28;20061;-84
2023/05/14 11:33:00;;;;;;;8.02;4.13;;;21.30;99.90;;;;;;5044571;28;20046;-82
2023/05/14 11:35:26;;;;;;;6.53;3.92;;;21.40;99.90;;;;;;5016418;28;20087;-86
2023/05/14 11:37:52;;;;;;;10.05;3.90;;;21.50;99.90;;;;;;4980301;28;20041;-86
2023/05/14 11:40:17;;;;;;;11.20;3.80;;;21.50;99.90;;;;;;5029770;28;20551;-87
2023/05/14 11:42:44;;;;;;;9.90;3.20;;;21.50;99.90;;;;;;5012993;28;20033;-86
2023/05/14 11:45:11;;;;;;;9.50;3.17;;;21.50;99.90;;;;;;5004290;28;20048;-86
2023/05/14 11:47:37;;;;;;;6.45;3.30;;;21.50;99.90;;;;;;4999326;28;20116;-87
2023/05/14 11:50:03;;;;;;;8.52;3.50;;;21.50;99.70;;;;;;4999175;28;20042;-87
2023/05/14 11:52:28;;;;;;;10.15;3.22;;;21.50;99.30;;;;;;4982613;28;20474;-87
2023/05/14 11:54:54;;;;;;;7.40;3.65;;;21.60;98.50;;;;;;4999724;28;20118;-86
2023/05/14 11:57:21;;;;;;;7.50;3.75;;;21.70;97.30;;;;;;5016333;28;20041;-86
2023/05/14 11:59:48;;;;;;;10.52;3.50;;;21.60;96.80;;;;;;5015413;28;20045;-87
2023/05/14 12:02:18;;;;;;;23.95;4.28;;;21.60;97.00;;;;;;5010884;28;20041;-88
2023/05/14 12:04:49;;;;;;;9.85;3.65;;;21.60;97.50;;;;;;5017986;28;20497;-87
2023/05/14 12:07:15;;;;;;;7.53;3.22;;;21.70;97.10;;;;;;4990093;28;20065;-85
2023/05/14 12:09:48;;;;;;;8.90;3.88;;;21.80;96.10;;;;;;4997750;28;20118;-86
2023/05/14 12:12:18;;;;;;;9.13;3.55;;;21.80;95.60;;;;;;5019531;28;20481;-84
2023/05/14 12:14:45;;;;;;;8.35;3.10;;;21.90;95.60;;;;;;5022742;28;20037;-84
2023/05/14 12:17:13;;;;;;;8.73;3.25;;;21.90;95.60;;;;;;5005537;28;20473;-84
2023/05/14 12:19:41;;;;;;;9.07;3.45;;;22.00;95.40;;;;;;5013648;28;20081;-84
2023/05/14 12:22:08;;;;;;;9.18;3.10;;;22.00;93.90;;;;;;5017233;28;20092;-81
2023/05/14 12:24:34;;;;;;;4.95;2.90;;;22.00;92.90;;;;;;5018847;28;20115;-82
2023/05/14 12:27:01;;;;;;;7.57;3.20;;;22.10;93.80;;;;;;5004894;28;20470;-83
2023/05/14 12:29:27;;;;;;;6.60;3.38;;;22.30;93.60;;;;;;5017323;28;20041;-84
2023/05/14 12:31:52;;;;;;;9.88;3.25;;;22.40;94.00;;;;;;5017808;28;20119;-83